Terminal Aerodrome Forecast
Issued by NWS Jackson, MS

Home | Current Version | Previous Version | Text Only | Print | Product List | Glossary On
Versions: 1 2 3 4 5 6 7 8 9 10 11 12 13 14 15 16
288
FTUS44 KMEG 251726
TAFTUP
TAF
KTUP 251726Z 2518/2618 18007KT P6SM SCT040
     FM260100 00000KT P6SM BKN250
     FM261500 18004KT P6SM SCT030 BKN250=

USA.gov is the U.S. government's official web portal to all federal, state and local government web resources and services.